メインページ
METAR-TAF:

METAR-TAF

空港 :

Bradford, ペンシルバニア州, アメリカ合衆国

緯度: 41-47-55N, 経度: 078-38-09W, 海抜: 653m

現時点の気象観測

当レポートは24分前の16:53(UTC)に作成
西の風 8kt
気温 29°C
湿度 58%
気圧 1015 hPa
視程: 16.1km
晴天

METAR: KBFD 211653Z AUTO 26008KT 10SM CLR 29/20 A2998 RMK AO2 SLP128 T02890200

時間: 13:17 (17:17 UTC)

予報

当レポートは1時間24分前の15:53(UTC)に作成
予報は21日の 16時(UTC)から 22日の 12時(UTC)まで有効
西/北西の風 10kt、最大15ktの突風を伴う
視程: 10km
高度4000ftの雲は散在している
21日の 2200時(UTC)から
北/北西の風 5kt
視程: 10km
高度5000ftの千切れ雲あり
22日の 0900時(UTC)から
北/北東の風 5kt
視程: 10km
高度1500ftの曇り

TAF: KBFD 211553Z 2116/2212 29010G15KT P6SM SCT040 FM212200 33005KT P6SM BKN050 FM220900 03005KT P6SM OVC015

4,000以上の空港の気象観測と天気予報(METAR報とTAF報)

利用可能な観測所は地図上に黄色い丸と赤い丸で示す。

丸の上にカーソルを重ねると観測所名を参照できる。

次にクリックすると気象観測と天気予報を参照できる。

マップの切り替え:黒色「×」印の緑ボタンをクリックして拡大、「-」印の緑ボタンをクリックして縮小、緑色の三角印をクリックして隣りの地図に切り替え


METAR-TAF: